This is the latest recevied weather packets stored in our database for station/object AG1T-20. If no packets are shown the sender has not sent any weather packets the latest 10 day(s).
| Time | Temp. | Humidity | Pressure | Rain* | Wind** | Luminosity | Snow |
|---|---|---|---|---|---|---|---|
| 1787487605 | 18.33° C | 69% | 1023.1 hPa | 0 mm | - | 0 W/m² | - |
| 1787487004 | 18.33° C | 67% | 1023.1 hPa | 0 mm | - | 0 W/m² | - |
| 1787486404 | 18.89° C | 65% | 1023.1 hPa | 0 mm | - | 0 W/m² | - |
| 1787485805 | 18.89° C | 63% | 1022.2 hPa | 0 mm | - | 0 W/m² | - |
| 1787485205 | 18.89° C | 64% | 1022.2 hPa | 0 mm | - | 0 W/m² | - |
| 1787484605 | 20° C | 60% | 1022.2 hPa | 0 mm | - | 0 W/m² | - |
| 1787484005 | 19.44° C | 62% | 1022.2 hPa | 0 mm | - | 0 W/m² | - |
| 1787483404 | 19.44° C | 62% | 1022.2 hPa | 0 mm | - | 0 W/m² | - |
| 1787482804 | 20° C | 60% | 1022.2 hPa | 0 mm | - | 0 W/m² | - |
| 1787482205 | 20° C | 61% | 1022.2 hPa | 0 mm | - | 0 W/m² | - |
| 1787481604 | 20° C | 60% | 1022.2 hPa | 0 mm | - | 0 W/m² | - |
| 1787481005 | 20° C | 60% | 1022.2 hPa | 0 mm | - | 0 W/m² | - |
| 1787480405 | 20° C | 61% | 1022.2 hPa | 0 mm | - | 0 W/m² | - |
| 1787479805 | 20° C | 61% | 1022.2 hPa | 0 mm | - | 0 W/m² | - |
| 1787479204 | 20° C | 59% | 1022.2 hPa | 0 mm | - | 0 W/m² | - |
| 1787478605 | 20.56° C | 58% | 1021.8 hPa | 0 mm | - | 0 W/m² | - |
| 1787478004 | 20.56° C | 58% | 1021.8 hPa | 0 mm | - | 0 W/m² | - |
| 1787477404 | 20.56° C | 59% | 1021.8 hPa | 0 mm | - | 0 W/m² | - |
| 1787476804 | 20.56° C | 58% | 1021.8 hPa | 0 mm | - | 0 W/m² | - |
| 1787476205 | 22.22° C | 50% | 1021.8 hPa | 0 mm | - | 0 W/m² | - |
| 1787475605 | 22.22° C | 50% | 1021.8 hPa | 0 mm | - | 0 W/m² | - |
| 1787475004 | 21.67° C | 52% | 1022.6 hPa | 0 mm | - | 0 W/m² | - |
| 1787474405 | 21.67° C | 52% | 1022.6 hPa | 0 mm | - | 0 W/m² | - |
| 1787473804 | 21.67° C | 54% | 1022.6 hPa | 0 mm | - | 0 W/m² | - |
| 1787473205 | 21.67° C | 55% | 1022.6 hPa | 0 mm | - | 0 W/m² | - |
* Rain latest hour (hover to see other rain measurements)
** Current wind speed in m/s (hover to see current wind gust speed)